Time;durP1;ratioP1;P1;durP2;ratioP2;P2;SDS_P1;SDS_P2;PMS_P1;PMS_P2;Temp;Humidity;BMP_temperature;BMP_pressure;BME280_temperature;BME280_humidity;BME280_pressure;Samples;Min_cycle;Max_cycle;Signal;HPM_P1;HPM_P2
2024/01/10 00:01:33;;;;;;;15.25;13.07;;;1.80;99.90;;;;;;5091872;28;20024;-78
2024/01/10 00:03:59;;;;;;;15.95;11.30;;;1.60;99.90;;;;;;5090194;28;20032;-78
2024/01/10 00:06:25;;;;;;;15.75;13.07;;;1.50;99.90;;;;;;5091635;28;20070;-78
2024/01/10 00:08:50;;;;;;;21.30;17.00;;;1.40;99.90;;;;;;5091741;28;20492;-78
2024/01/10 00:11:16;;;;;;;22.42;17.77;;;1.20;99.90;;;;;;5091705;28;20099;-78
2024/01/10 00:13:42;;;;;;;19.38;15.93;;;1.20;99.90;;;;;;5091359;28;20028;-77
2024/01/10 00:16:07;;;;;;;56.67;39.72;;;1.20;99.90;;;;;;5091617;28;20110;-78
2024/01/10 00:18:34;;;;;;;55.13;38.95;;;1.30;99.90;;;;;;5090999;28;20024;-78
2024/01/10 00:21:00;;;;;;;44.35;30.20;;;1.20;99.90;;;;;;5091805;28;20024;-77
2024/01/10 00:23:25;;;;;;;34.05;21.48;;;1.20;99.90;;;;;;5090169;28;20024;-78
2024/01/10 00:25:51;;;;;;;40.10;22.77;;;1.10;99.90;;;;;;5091370;28;20489;-77
2024/01/10 00:28:17;;;;;;;40.70;21.70;;;1.10;99.90;;;;;;5091171;28;20032;-77
2024/01/10 00:30:49;;;;;;;29.13;17.25;;;1.10;99.90;;;;;;5091216;28;20078;-78
2024/01/10 00:33:15;;;;;;;35.47;20.92;;;1.10;99.90;;;;;;5091304;28;20024;-77
2024/01/10 00:35:41;;;;;;;28.50;17.83;;;1.10;99.90;;;;;;5091158;28;20033;-77
2024/01/10 00:38:06;;;;;;;29.92;20.58;;;1.10;99.90;;;;;;5091247;28;20024;-77
2024/01/10 00:40:32;;;;;;;42.30;28.25;;;1.10;99.90;;;;;;5091057;28;20394;-78
2024/01/10 00:42:58;;;;;;;45.65;29.23;;;1.10;99.90;;;;;;5091655;28;20020;-77
2024/01/10 00:45:24;;;;;;;40.73;24.50;;;1.10;99.90;;;;;;5050556;28;1157334;-77
2024/01/10 00:47:50;;;;;;;36.45;26.00;;;1.10;99.90;;;;;;5091623;28;20267;-77
2024/01/10 00:50:16;;;;;;;35.25;23.42;;;1.20;99.90;;;;;;5092032;28;20040;-77
2024/01/10 00:52:42;;;;;;;27.13;19.10;;;1.20;99.90;;;;;;5091965;28;20103;-79
2024/01/10 00:55:08;;;;;;;30.63;21.50;;;1.10;99.90;;;;;;5092325;28;20454;-77
2024/01/10 00:57:34;;;;;;;43.05;28.35;;;1.20;99.90;;;;;;5091774;28;20099;-78
2024/01/10 00:59:59;;;;;;;22.48;17.10;;;1.10;99.90;;;;;;5091915;28;20032;-77
2024/01/10 01:02:25;;;;;;;21.05;15.85;;;1.20;99.90;;;;;;5091636;28;20046;-77
2024/01/10 01:04:50;;;;;;;20.50;14.40;;;1.10;99.90;;;;;;5091833;28;20478;-78
2024/01/10 01:07:16;;;;;;;19.48;14.05;;;1.10;99.90;;;;;;5091503;28;20024;-77
2024/01/10 01:09:42;;;;;;;25.15;16.23;;;1.10;99.90;;;;;;5092149;28;20410;-77
2024/01/10 01:12:07;;;;;;;22.52;14.90;;;1.10;99.90;;;;;;5091532;28;20091;-77
2024/01/10 01:14:33;;;;;;;26.75;17.95;;;1.10;99.90;;;;;;5091849;28;20531;-77
2024/01/10 01:16:59;;;;;;;26.42;17.83;;;1.10;99.90;;;;;;5091338;28;20031;-77
2024/01/10 01:19:24;;;;;;;18.15;13.55;;;1.10;99.90;;;;;;5091620;28;20051;-77
2024/01/10 01:21:51;;;;;;;23.52;16.67;;;1.10;99.90;;;;;;5092279;28;20497;-77
2024/01/10 01:24:16;;;;;;;20.60;14.57;;;1.10;99.90;;;;;;5091533;28;20027;-77
2024/01/10 01:26:42;;;;;;;17.15;12.23;;;1.10;99.90;;;;;;5091455;28;20028;-77
2024/01/10 01:29:08;;;;;;;15.18;11.73;;;1.10;99.90;;;;;;5091713;28;20028;-77
2024/01/10 01:31:34;;;;;;;15.65;11.68;;;1.10;99.90;;;;;;5091520;28;20485;-77
2024/01/10 01:33:59;;;;;;;14.27;11.98;;;1.10;99.90;;;;;;5091938;28;20035;-77
2024/01/10 01:36:25;;;;;;;19.95;14.13;;;1.10;99.90;;;;;;5095295;28;20482;-78
2024/01/10 01:38:51;;;;;;;15.95;12.35;;;1.10;99.90;;;;;;5095202;28;20562;-77
2024/01/10 01:41:17;;;;;;;19.60;13.25;;;1.10;99.90;;;;;;5094900;28;20027;-77
2024/01/10 01:43:44;;;;;;;15.07;11.93;;;1.10;99.90;;;;;;5094684;28;20101;-77
2024/01/10 01:46:10;;;;;;;19.50;14.10;;;1.20;99.90;;;;;;5095299;28;20062;-77
2024/01/10 01:48:36;;;;;;;17.13;12.90;;;1.20;99.90;;;;;;5094832;28;20073;-77
2024/01/10 01:51:05;;;;;;;18.30;13.63;;;1.20;99.90;;;;;;5093981;28;20043;-77
2024/01/10 01:53:33;;;;;;;18.50;13.73;;;1.20;99.90;;;;;;5095055;28;20012;-77
2024/01/10 01:56:03;;;;;;;18.35;13.48;;;1.30;99.90;;;;;;5094623;28;20043;-77
2024/01/10 01:58:29;;;;;;;15.73;11.90;;;1.20;99.90;;;;;;5094532;28;20111;-78
2024/01/10 02:00:55;;;;;;;16.60;13.57;;;1.20;99.90;;;;;;5094652;28;20459;-78
2024/01/10 02:03:21;;;;;;;17.00;13.05;;;1.20;99.90;;;;;;5094700;28;20019;-77
2024/01/10 02:05:47;;;;;;;16.02;12.57;;;1.30;99.90;;;;;;5094667;28;20547;-78
2024/01/10 02:08:13;;;;;;;16.10;12.70;;;1.30;99.90;;;;;;5094827;28;20089;-78
2024/01/10 02:10:39;;;;;;;16.55;12.48;;;1.30;99.90;;;;;;5094617;28;20032;-77
2024/01/10 02:13:05;;;;;;;13.68;11.05;;;1.30;99.90;;;;;;5094199;28;20440;-78
2024/01/10 02:15:31;;;;;;;14.93;12.18;;;1.30;99.90;;;;;;5094184;28;20035;-78
2024/01/10 02:17:57;;;;;;;14.82;12.27;;;1.30;99.90;;;;;;5094725;28;20020;-77
2024/01/10 02:20:23;;;;;;;15.52;11.30;;;1.40;99.90;;;;;;5094035;28;20398;-77
2024/01/10 02:22:50;;;;;;;15.45;11.45;;;1.70;99.90;;;;;;5094589;28;20104;-77
2024/01/10 02:25:16;;;;;;;21.23;15.27;;;1.90;99.90;;;;;;5093837;28;20028;-78
2024/01/10 02:27:42;;;;;;;39.50;22.60;;;2.10;99.90;;;;;;5094200;28;20402;-77
2024/01/10 02:30:08;;;;;;;50.50;28.38;;;2.20;99.90;;;;;;5094043;28;20024;-76
2024/01/10 02:32:35;;;;;;;45.60;24.15;;;2.20;99.90;;;;;;5094116;28;20024;-77
2024/01/10 02:35:01;;;;;;;34.25;20.75;;;2.30;99.90;;;;;;5093982;28;20501;-78
2024/01/10 02:37:26;;;;;;;38.25;22.85;;;2.20;99.90;;;;;;5093950;28;20028;-78
2024/01/10 02:39:52;;;;;;;47.03;25.70;;;2.10;99.90;;;;;;5094119;28;20093;-77
2024/01/10 02:42:18;;;;;;;51.35;28.42;;;2.10;99.90;;;;;;5093469;28;20020;-77
2024/01/10 02:44:44;;;;;;;51.60;28.52;;;1.90;99.90;;;;;;5093761;28;20070;-77
2024/01/10 02:47:11;;;;;;;62.83;34.58;;;1.70;99.90;;;;;;5092796;28;20483;-77
2024/01/10 02:49:37;;;;;;;64.18;35.40;;;1.60;99.90;;;;;;5093738;28;20028;-77
2024/01/10 02:52:03;;;;;;;43.53;25.85;;;1.60;99.90;;;;;;5093607;28;20024;-77
2024/01/10 02:54:29;;;;;;;33.10;19.27;;;1.50;99.90;;;;;;5093654;28;20036;-78
2024/01/10 02:56:54;;;;;;;18.20;13.25;;;1.60;99.90;;;;;;5093222;28;20027;-77
2024/01/10 02:59:20;;;;;;;14.30;11.40;;;1.60;99.90;;;;;;5093764;28;20028;-77
2024/01/10 03:01:45;;;;;;;12.88;10.32;;;1.60;99.90;;;;;;5093348;28;20436;-78
2024/01/10 03:04:11;;;;;;;15.13;10.65;;;1.60;99.90;;;;;;5093825;28;20028;-77
2024/01/10 03:06:37;;;;;;;13.60;10.77;;;1.60;99.90;;;;;;5092196;28;20077;-77
2024/01/10 03:09:03;;;;;;;13.73;10.98;;;1.50;99.90;;;;;;5093462;28;20603;-77
2024/01/10 03:11:28;;;;;;;12.32;10.23;;;1.50;99.90;;;;;;5093048;28;20513;-77
2024/01/10 03:14:10;;;;;;;14.77;11.13;;;1.50;99.90;;;;;;5093809;28;20040;-78
2024/01/10 03:16:37;;;;;;;21.05;14.68;;;1.50;99.90;;;;;;5093189;28;20024;-77
2024/01/10 03:19:02;;;;;;;14.75;11.40;;;1.50;99.90;;;;;;5093227;28;20559;-77
2024/01/10 03:21:28;;;;;;;13.23;10.98;;;1.40;99.90;;;;;;5093107;28;20016;-78
2024/01/10 03:23:58;;;;;;;14.30;11.32;;;1.40;99.90;;;;;;5093098;28;20485;-78
2024/01/10 03:26:24;;;;;;;22.30;14.93;;;1.40;99.90;;;;;;5092770;28;20024;-78
2024/01/10 03:28:50;;;;;;;17.42;12.23;;;1.30;99.90;;;;;;5093457;28;20024;-77
2024/01/10 03:31:16;;;;;;;17.88;11.55;;;1.40;99.90;;;;;;5093071;28;20024;-77
2024/01/10 03:33:42;;;;;;;15.95;11.77;;;1.40;99.90;;;;;;5092963;28;20621;-77
2024/01/10 03:36:12;;;;;;;14.95;11.30;;;1.40;99.90;;;;;;5093111;28;20099;-78
2024/01/10 03:38:37;;;;;;;17.52;11.90;;;1.40;99.90;;;;;;5093057;28;20378;-78
2024/01/10 03:41:03;;;;;;;15.88;12.13;;;1.40;99.90;;;;;;5092292;28;20028;-78
2024/01/10 03:43:29;;;;;;;14.35;11.98;;;1.40;99.90;;;;;;5092914;28;20020;-78
2024/01/10 03:45:55;;;;;;;15.77;11.82;;;1.50;99.90;;;;;;5092814;28;20052;-78
2024/01/10 03:48:20;;;;;;;14.50;11.52;;;1.50;99.90;;;;;;5092628;28;20028;-78
2024/01/10 03:50:46;;;;;;;16.23;12.38;;;1.40;99.90;;;;;;5092496;28;20067;-78
2024/01/10 03:53:12;;;;;;;14.38;11.77;;;1.50;99.90;;;;;;5092710;28;20023;-78
2024/01/10 03:55:38;;;;;;;14.68;12.25;;;1.40;99.90;;;;;;5092615;28;20035;-77
2024/01/10 03:58:04;;;;;;;14.88;12.20;;;1.40;99.90;;;;;;5092269;28;20020;-78
2024/01/10 04:00:30;;;;;;;14.70;11.70;;;1.40;99.90;;;;;;5092597;28;20107;-78
2024/01/10 04:02:56;;;;;;;16.92;12.18;;;1.40;99.90;;;;;;5092438;28;20028;-78
2024/01/10 04:05:24;;;;;;;17.45;12.70;;;1.40;99.90;;;;;;5092301;28;20020;-77
2024/01/10 04:07:50;;;;;;;15.93;11.93;;;1.40;99.90;;;;;;5092582;28;20030;-77
2024/01/10 04:10:16;;;;;;;16.30;12.15;;;1.50;99.90;;;;;;5092000;28;20051;-77
2024/01/10 04:12:42;;;;;;;17.48;12.57;;;1.50;99.90;;;;;;5092537;28;20067;-78
2024/01/10 04:15:08;;;;;;;14.98;11.68;;;1.50;99.90;;;;;;5092305;28;20371;-78
2024/01/10 04:17:34;;;;;;;14.73;11.48;;;1.40;99.90;;;;;;5092305;28;20107;-78
2024/01/10 04:20:00;;;;;;;14.18;11.45;;;1.40;99.90;;;;;;5092340;28;20059;-77
2024/01/10 04:22:25;;;;;;;14.75;11.82;;;1.40;99.90;;;;;;5092635;28;20036;-77
2024/01/10 04:24:51;;;;;;;15.88;11.50;;;1.40;99.90;;;;;;5091919;28;20024;-78
2024/01/10 04:27:20;;;;;;;15.85;11.65;;;1.40;99.90;;;;;;5092327;28;20016;-78
2024/01/10 04:29:45;;;;;;;19.98;15.55;;;1.50;99.90;;;;;;5092650;28;20028;-77
2024/01/10 04:32:11;;;;;;;25.02;18.55;;;1.50;99.90;;;;;;5092150;28;20028;-77
2024/01/10 04:34:37;;;;;;;19.80;14.95;;;1.40;99.90;;;;;;5091995;28;20477;-77
2024/01/10 04:37:03;;;;;;;15.00;12.80;;;1.40;99.90;;;;;;5092232;28;20107;-77
2024/01/10 04:39:29;;;;;;;14.82;11.30;;;1.40;99.90;;;;;;5091773;28;20103;-78
2024/01/10 04:41:55;;;;;;;15.60;10.85;;;1.40;99.90;;;;;;5092347;28;20058;-78
2024/01/10 04:44:20;;;;;;;14.75;11.38;;;1.50;99.90;;;;;;5092055;28;20036;-78
2024/01/10 04:46:46;;;;;;;14.60;10.82;;;1.50;99.90;;;;;;5091738;28;20063;-78
2024/01/10 04:49:12;;;;;;;15.43;11.52;;;1.50;99.90;;;;;;5092456;28;20493;-77
2024/01/10 04:51:37;;;;;;;13.88;11.15;;;1.40;99.90;;;;;;5092055;28;20580;-77
2024/01/10 04:54:03;;;;;;;15.30;11.38;;;1.50;99.90;;;;;;5091529;28;20115;-78
2024/01/10 04:56:29;;;;;;;13.55;10.57;;;1.40;99.90;;;;;;5092295;28;20028;-77
2024/01/10 04:58:55;;;;;;;14.65;11.27;;;1.50;99.90;;;;;;5092024;28;20028;-77
2024/01/10 05:01:20;;;;;;;14.38;11.30;;;1.50;99.90;;;;;;5091826;28;20102;-76
2024/01/10 05:03:46;;;;;;;14.20;11.02;;;1.60;99.90;;;;;;5092118;28;20035;-76
2024/01/10 05:06:11;;;;;;;12.95;10.48;;;1.80;99.90;;;;;;5091821;28;20036;-76
2024/01/10 05:08:37;;;;;;;13.52;10.43;;;2.10;99.90;;;;;;5091437;28;20024;-76
2024/01/10 05:11:03;;;;;;;14.82;10.90;;;2.20;99.90;;;;;;5095257;28;20029;-76
2024/01/10 05:13:29;;;;;;;15.25;10.70;;;2.20;99.90;;;;;;5095548;28;20012;-76
2024/01/10 05:15:54;;;;;;;14.63;11.13;;;2.20;99.90;;;;;;5095660;28;20028;-76
2024/01/10 05:18:20;;;;;;;13.57;10.45;;;2.20;99.90;;;;;;5095378;28;20023;-77
2024/01/10 05:20:46;;;;;;;13.70;10.57;;;2.20;99.90;;;;;;5095506;28;20032;-76
2024/01/10 05:23:12;;;;;;;15.18;11.00;;;2.20;99.90;;;;;;5093817;28;20028;-76
2024/01/10 05:25:37;;;;;;;14.40;10.70;;;2.10;99.90;;;;;;5095290;28;20032;-76
2024/01/10 05:28:04;;;;;;;15.38;11.00;;;2.00;99.90;;;;;;5095385;28;20027;-77
2024/01/10 05:30:30;;;;;;;14.18;10.82;;;1.80;99.90;;;;;;5094592;28;20036;-76
2024/01/10 05:32:55;;;;;;;14.65;11.43;;;1.80;99.90;;;;;;5095345;28;20394;-76
2024/01/10 05:35:21;;;;;;;15.27;10.98;;;1.80;99.90;;;;;;5095129;28;20036;-76
2024/01/10 05:37:47;;;;;;;16.13;11.98;;;1.70;99.90;;;;;;5094747;28;20393;-76
2024/01/10 05:40:13;;;;;;;16.50;11.85;;;1.70;99.90;;;;;;5095118;28;20047;-77
2024/01/10 05:42:39;;;;;;;17.13;11.93;;;1.60;99.90;;;;;;5094892;28;20498;-77
2024/01/10 05:45:05;;;;;;;15.75;11.55;;;1.60;99.90;;;;;;5094897;28;20052;-76
2024/01/10 05:47:31;;;;;;;16.73;11.85;;;1.60;99.90;;;;;;5095362;28;20484;-76
2024/01/10 05:49:57;;;;;;;16.15;12.02;;;1.60;99.90;;;;;;5094870;28;20060;-77
2024/01/10 05:52:22;;;;;;;16.33;11.82;;;1.50;99.90;;;;;;5094687;28;20024;-76
2024/01/10 05:54:48;;;;;;;16.70;12.02;;;1.60;99.90;;;;;;5095082;28;20044;-77
2024/01/10 05:57:15;;;;;;;14.60;10.77;;;1.60;99.90;;;;;;5094841;28;20028;-76
2024/01/10 05:59:41;;;;;;;13.55;10.55;;;1.50;99.90;;;;;;5094826;28;20107;-76
2024/01/10 06:02:06;;;;;;;13.38;10.98;;;1.50;99.90;;;;;;5094503;28;20063;-77
2024/01/10 06:04:32;;;;;;;14.13;10.55;;;1.50;99.90;;;;;;5095108;28;20051;-76
2024/01/10 06:07:01;;;;;;;13.55;10.82;;;1.50;99.90;;;;;;5094286;28;20021;-76
2024/01/10 06:09:27;;;;;;;13.02;9.80;;;1.50;99.90;;;;;;5094567;28;20046;-76
2024/01/10 06:11:53;;;;;;;12.43;9.45;;;1.40;99.90;;;;;;5094874;28;20080;-76
2024/01/10 06:14:18;;;;;;;13.57;9.50;;;1.50;99.90;;;;;;5094480;28;20062;-76
2024/01/10 06:16:45;;;;;;;11.73;10.02;;;1.50;99.90;;;;;;5094271;28;20544;-77
2024/01/10 06:19:11;;;;;;;14.90;10.98;;;1.50;99.90;;;;;;5094191;28;20051;-76
2024/01/10 06:21:37;;;;;;;13.40;10.90;;;1.40;99.90;;;;;;5094629;28;20054;-76
2024/01/10 06:24:04;;;;;;;12.77;9.80;;;1.40;99.90;;;;;;5094249;28;20020;-77
2024/01/10 06:26:29;;;;;;;13.30;10.50;;;1.50;99.90;;;;;;5094247;28;20130;-76
2024/01/10 06:28:55;;;;;;;12.50;9.70;;;1.40;99.90;;;;;;5094195;28;20487;-76
2024/01/10 06:31:21;;;;;;;13.52;9.98;;;1.40;99.90;;;;;;5094123;28;20517;-77
2024/01/10 06:33:47;;;;;;;13.93;10.70;;;1.40;99.90;;;;;;5094097;28;20382;-76
2024/01/10 06:36:13;;;;;;;13.50;10.00;;;1.40;99.90;;;;;;5094001;28;20635;-76
2024/01/10 06:38:39;;;;;;;15.07;11.13;;;1.40;99.90;;;;;;5094011;28;20024;-76
2024/01/10 06:41:13;;;;;;;13.55;10.25;;;1.40;99.90;;;;;;5093806;28;20067;-76
2024/01/10 06:43:40;;;;;;;14.70;10.38;;;1.50;99.90;;;;;;5094278;28;20028;-76
2024/01/10 06:46:06;;;;;;;12.50;10.50;;;1.50;99.90;;;;;;5093515;28;20052;-76
2024/01/10 06:48:32;;;;;;;15.80;12.23;;;1.50;99.90;;;;;;5093602;28;20024;-76
2024/01/10 06:50:57;;;;;;;14.43;10.70;;;1.50;99.90;;;;;;5093759;28;20043;-76
2024/01/10 06:53:24;;;;;;;15.57;11.20;;;1.50;99.90;;;;;;5094109;28;20020;-76
2024/01/10 06:55:49;;;;;;;14.38;11.60;;;1.50;99.90;;;;;;5093661;28;20044;-76
2024/01/10 06:58:15;;;;;;;16.00;11.40;;;1.50;99.90;;;;;;5093566;28;20074;-77
2024/01/10 07:00:41;;;;;;;13.88;11.10;;;1.40;99.90;;;;;;5093495;28;20389;-76
2024/01/10 07:03:07;;;;;;;13.07;10.57;;;1.40;99.90;;;;;;5093097;28;20490;-76
2024/01/10 07:05:33;;;;;;;13.15;10.25;;;1.50;99.90;;;;;;5093468;28;20390;-76
2024/01/10 07:07:59;;;;;;;13.88;10.60;;;1.50;99.90;;;;;;5093760;28;20019;-76
2024/01/10 07:10:27;;;;;;;12.38;9.95;;;1.50;99.90;;;;;;5093378;28;20032;-76
2024/01/10 07:12:54;;;;;;;12.15;10.20;;;1.50;99.90;;;;;;5093296;28;20029;-76
2024/01/10 07:15:20;;;;;;;12.75;10.25;;;1.50;99.90;;;;;;5092974;28;20506;-76
2024/01/10 07:17:45;;;;;;;14.52;10.70;;;1.50;99.90;;;;;;5092994;28;20051;-77
2024/01/10 07:20:12;;;;;;;15.85;10.85;;;1.50;99.90;;;;;;5093365;28;20028;-76
2024/01/10 07:22:43;;;;;;;13.18;10.68;;;1.50;99.90;;;;;;5093133;28;20085;-75
2024/01/10 07:25:14;;;;;;;13.68;10.63;;;1.50;99.90;;;;;;5093064;28;20103;-75
2024/01/10 07:27:42;;;;;;;13.23;10.25;;;1.50;99.90;;;;;;5092902;28;20111;-75
2024/01/10 07:30:13;;;;;;;15.07;10.85;;;1.60;99.90;;;;;;5093188;28;20016;-76
2024/01/10 07:32:42;;;;;;;15.32;11.60;;;1.50;99.90;;;;;;5092562;28;20028;-76
2024/01/10 07:35:11;;;;;;;15.13;11.15;;;1.50;99.90;;;;;;5092786;28;20036;-75
2024/01/10 07:37:38;;;;;;;14.85;12.02;;;1.50;99.90;;;;;;5092892;28;20024;-75
2024/01/10 07:40:06;;;;;;;14.68;11.40;;;1.50;99.90;;;;;;5092862;28;20051;-75
2024/01/10 07:42:32;;;;;;;16.25;11.77;;;1.70;99.90;;;;;;5092506;28;20038;-75
2024/01/10 07:44:58;;;;;;;14.10;11.15;;;1.80;99.90;;;;;;5092506;28;20517;-75
2024/01/10 07:47:24;;;;;;;16.10;11.25;;;2.00;99.90;;;;;;5092271;28;20028;-75
2024/01/10 07:49:49;;;;;;;17.00;11.43;;;2.20;99.90;;;;;;5092509;28;20039;-75
2024/01/10 07:52:19;;;;;;;14.75;11.60;;;2.20;99.90;;;;;;5092574;28;20024;-75
2024/01/10 07:54:44;;;;;;;15.30;11.43;;;2.10;99.90;;;;;;5092333;28;20177;-76
2024/01/10 07:57:11;;;;;;;15.38;11.52;;;2.10;99.90;;;;;;5092593;28;20111;-76
2024/01/10 07:59:36;;;;;;;17.80;11.77;;;2.00;99.90;;;;;;5092428;28;20032;-75
2024/01/10 08:02:02;;;;;;;13.85;11.55;;;2.00;99.90;;;;;;5092110;28;20020;-76
2024/01/10 08:04:27;;;;;;;14.23;11.85;;;1.70;99.90;;;;;;5092441;28;20432;-76
2024/01/10 08:06:53;;;;;;;15.93;11.55;;;1.60;99.90;;;;;;5092789;28;20055;-76
2024/01/10 08:09:19;;;;;;;16.63;11.98;;;1.60;99.90;;;;;;5092425;28;20029;-76
2024/01/10 08:11:45;;;;;;;16.27;12.30;;;1.50;99.90;;;;;;5092359;28;20035;-76
2024/01/10 08:14:12;;;;;;;14.02;11.82;;;1.40;99.90;;;;;;5092190;28;20043;-76
2024/01/10 08:16:37;;;;;;;17.50;12.43;;;1.40;99.90;;;;;;5092358;28;20043;-76
2024/01/10 08:19:03;;;;;;;15.38;12.60;;;1.30;99.90;;;;;;5092259;28;20502;-76
2024/01/10 08:21:29;;;;;;;16.85;12.98;;;1.30;99.90;;;;;;5092336;28;20035;-76
2024/01/10 08:23:54;;;;;;;16.23;12.80;;;1.20;99.90;;;;;;5092362;28;20024;-76
2024/01/10 08:26:20;;;;;;;13.70;11.90;;;1.20;99.90;;;;;;5092341;28;20111;-75
2024/01/10 08:28:46;;;;;;;15.20;12.10;;;1.20;99.90;;;;;;5092089;28;20028;-75
2024/01/10 08:31:12;;;;;;;14.90;13.00;;;1.20;99.90;;;;;;5091898;28;20058;-75
2024/01/10 08:33:39;;;;;;;16.42;13.27;;;1.20;99.90;;;;;;5092131;28;20028;-75
2024/01/10 08:36:05;;;;;;;15.13;12.73;;;1.20;99.90;;;;;;5091936;28;20035;-75
2024/01/10 08:38:31;;;;;;;15.95;13.13;;;1.20;99.90;;;;;;5092162;28;20028;-75
2024/01/10 08:40:56;;;;;;;17.50;14.43;;;1.20;99.90;;;;;;5091778;28;20024;-75
2024/01/10 08:43:22;;;;;;;16.95;13.95;;;1.20;99.90;;;;;;5092526;28;20028;-76
2024/01/10 08:45:48;;;;;;;17.73;13.73;;;1.10;99.90;;;;;;5094841;28;20048;-75
2024/01/10 08:48:14;;;;;;;16.88;13.52;;;1.20;99.90;;;;;;5096092;28;20037;-75
2024/01/10 08:50:39;;;;;;;16.13;13.27;;;1.20;99.90;;;;;;5096420;28;20035;-75
2024/01/10 08:53:05;;;;;;;15.52;12.77;;;1.10;99.90;;;;;;5096057;28;20062;-75
2024/01/10 08:55:34;;;;;;;17.85;13.48;;;1.20;99.90;;;;;;5095812;28;20031;-75
2024/01/10 08:57:59;;;;;;;17.55;12.93;;;1.20;99.90;;;;;;5095901;28;20024;-75
2024/01/10 09:00:25;;;;;;;16.15;13.40;;;1.30;99.90;;;;;;5096079;28;20089;-75
2024/01/10 09:02:52;;;;;;;15.65;12.98;;;1.30;99.90;;;;;;5095803;28;20486;-75
2024/01/10 09:05:18;;;;;;;14.07;12.10;;;1.30;99.90;;;;;;5095844;28;20035;-75
2024/01/10 09:07:44;;;;;;;16.20;12.82;;;1.20;99.90;;;;;;5095808;28;20421;-75
2024/01/10 09:10:09;;;;;;;16.45;13.02;;;1.20;99.90;;;;;;5095725;28;20035;-75
2024/01/10 09:12:35;;;;;;;17.67;13.82;;;1.20;99.90;;;;;;5095873;28;20352;-75
2024/01/10 09:15:01;;;;;;;15.63;12.75;;;1.20;99.90;;;;;;5095354;28;20078;-75
2024/01/10 09:17:28;;;;;;;15.45;12.85;;;1.20;99.90;;;;;;5095702;28;20024;-76
2024/01/10 09:19:53;;;;;;;16.73;12.98;;;1.30;99.90;;;;;;5095593;28;20070;-74
2024/01/10 09:22:19;;;;;;;21.20;15.18;;;1.30;99.90;;;;;;5095678;28;20044;-75
2024/01/10 09:24:45;;;;;;;18.63;15.07;;;1.30;99.90;;;;;;5095321;28;20025;-77
2024/01/10 09:27:11;;;;;;;16.80;13.35;;;1.20;99.90;;;;;;5095419;28;20024;-75
2024/01/10 09:29:37;;;;;;;15.75;13.27;;;1.30;99.90;;;;;;5095500;28;20107;-83
2024/01/10 09:32:03;;;;;;;18.70;14.70;;;1.30;99.90;;;;;;5095387;28;20485;-79
2024/01/10 09:34:29;;;;;;;20.58;14.00;;;1.30;99.90;;;;;;5095286;28;20164;-77
2024/01/10 09:36:54;;;;;;;30.23;26.38;;;1.40;99.90;;;;;;5095211;28;20035;-77
2024/01/10 09:39:20;;;;;;;40.25;33.85;;;1.30;99.90;;;;;;5095396;28;20482;-76
2024/01/10 09:41:48;;;;;;;37.65;33.47;;;1.30;99.90;;;;;;5095062;28;20497;-77
2024/01/10 09:44:18;;;;;;;30.63;27.38;;;1.30;99.90;;;;;;5094712;28;20024;-78
2024/01/10 09:46:47;;;;;;;28.67;24.63;;;1.30;99.90;;;;;;5094894;28;20093;-77
2024/01/10 09:49:13;;;;;;;25.27;20.85;;;1.30;99.90;;;;;;5095833;28;20420;-76
2024/01/10 09:51:39;;;;;;;22.17;18.90;;;1.40;99.90;;;;;;5094792;28;20389;-76
2024/01/10 09:54:05;;;;;;;19.83;17.48;;;1.40;99.90;;;;;;5095117;28;20053;-77
2024/01/10 09:56:32;;;;;;;33.88;30.27;;;1.40;99.90;;;;;;5094526;28;20161;-77
2024/01/10 09:59:04;;;;;;;35.83;32.03;;;1.40;99.90;;;;;;5094452;28;20024;-76
2024/01/10 10:01:30;;;;;;;26.50;21.73;;;1.40;99.90;;;;;;5095039;28;20040;-76
2024/01/10 10:03:57;;;;;;;29.48;23.33;;;1.40;99.90;;;;;;5094645;28;20508;-75
2024/01/10 10:06:22;;;;;;;39.65;28.75;;;1.40;99.90;;;;;;5094591;28;20108;-76
2024/01/10 10:08:48;;;;;;;52.83;44.67;;;1.40;99.90;;;;;;5094471;28;20131;-77
2024/01/10 10:11:14;;;;;;;74.95;61.17;;;1.50;99.90;;;;;;5094710;28;20034;-76
2024/01/10 10:13:41;;;;;;;45.63;39.40;;;1.50;99.90;;;;;;5094417;28;20024;-76
2024/01/10 10:16:09;;;;;;;36.75;31.75;;;1.60;99.90;;;;;;5094355;28;20111;-76
2024/01/10 10:18:35;;;;;;;52.42;32.45;;;1.60;99.90;;;;;;5094452;28;20023;-76
2024/01/10 10:21:11;;;;;;;25.85;21.25;;;1.50;99.90;;;;;;5094496;28;20067;-76
2024/01/10 10:23:42;;;;;;;36.38;25.58;;;1.50;99.90;;;;;;5094271;28;20031;-75
2024/01/10 10:26:19;;;;;;;25.08;20.92;;;1.90;99.90;;;;;;5093867;28;20058;-75
2024/01/10 10:28:47;;;;;;;43.38;33.97;;;2.20;99.90;;;;;;5094343;28;20024;-75
2024/01/10 10:31:13;;;;;;;24.05;19.25;;;2.30;99.90;;;;;;5094306;28;20497;-76
2024/01/10 10:33:39;;;;;;;30.67;23.65;;;2.50;99.90;;;;;;5094456;28;20679;-75
2024/01/10 10:36:05;;;;;;;38.65;30.73;;;2.70;99.90;;;;;;5093520;28;20032;-75
2024/01/10 10:38:31;;;;;;;41.80;35.35;;;2.80;99.90;;;;;;5094533;28;20027;-75
2024/01/10 10:40:59;;;;;;;34.65;30.92;;;2.80;99.90;;;;;;5093593;28;20024;-75
2024/01/10 10:43:26;;;;;;;28.85;25.45;;;2.50;99.90;;;;;;5093865;28;20028;-76
2024/01/10 10:45:51;;;;;;;24.95;22.10;;;2.40;99.90;;;;;;5093681;28;20405;-76
2024/01/10 10:48:20;;;;;;;22.98;20.17;;;2.20;99.90;;;;;;5093865;28;20024;-75
2024/01/10 10:51:02;;;;;;;21.48;18.58;;;2.10;99.90;;;;;;5093974;28;20066;-75
2024/01/10 10:53:29;;;;;;;19.67;17.13;;;2.00;99.90;;;;;;5094523;28;20028;-77
2024/01/10 10:55:58;;;;;;;19.17;16.00;;;2.00;99.90;;;;;;5093447;28;20036;-59
2024/01/10 10:58:23;;;;;;;22.10;19.35;;;1.90;99.90;;;;;;5094111;28;20461;-59
2024/01/10 11:00:50;;;;;;;22.27;19.15;;;1.90;99.90;;;;;;5093517;28;20187;-60
2024/01/10 11:03:17;;;;;;;25.45;21.65;;;1.90;99.90;;;;;;5093742;28;20028;-60
2024/01/10 11:05:44;;;;;;;25.48;21.38;;;1.90;99.90;;;;;;5093460;28;20031;-60
2024/01/10 11:08:14;;;;;;;37.00;33.17;;;1.90;99.90;;;;;;5092818;28;20401;-60
2024/01/10 11:10:42;;;;;;;32.80;28.88;;;1.90;99.90;;;;;;5093362;28;20028;-60
2024/01/10 11:13:46;;;;;;;26.50;23.42;;;1.90;99.90;;;;;;5093500;28;20032;-60
2024/01/10 11:16:49;;;;;;;19.30;16.73;;;1.90;99.90;;;;;;5087403;28;20044;-60
2024/01/10 11:19:52;;;;;;;19.17;16.85;;;1.90;99.90;;;;;;5093334;28;20394;-60
2024/01/10 11:22:26;;;;;;;18.95;15.35;;;1.80;99.90;;;;;;5093191;28;20442;-60
2024/01/10 11:24:52;;;;;;;18.73;16.70;;;1.80;99.90;;;;;;5093062;28;20036;-60
2024/01/10 11:27:18;;;;;;;19.17;15.85;;;1.90;99.90;;;;;;5093161;28;20101;-60
2024/01/10 11:29:46;;;;;;;19.27;16.17;;;1.90;99.90;;;;;;5093078;28;20034;-60
2024/01/10 11:32:16;;;;;;;27.35;23.02;;;1.80;99.90;;;;;;5092707;28;20431;-60
2024/01/10 11:34:56;;;;;;;25.98;22.08;;;1.90;99.90;;;;;;5092409;28;20043;-60
2024/01/10 11:37:21;;;;;;;54.88;42.67;;;1.90;99.90;;;;;;5092782;28;20034;-60
2024/01/10 11:39:47;;;;;;;44.22;36.83;;;1.90;99.90;;;;;;5092473;28;20020;-61
2024/01/10 11:42:23;;;;;;;33.25;28.80;;;1.90;99.90;;;;;;5092461;28;20055;-60
2024/01/10 11:44:50;;;;;;;30.67;25.50;;;1.90;99.90;;;;;;5092575;28;20032;-60
2024/01/10 11:47:15;;;;;;;35.85;30.30;;;1.90;99.90;;;;;;5092866;28;20372;-60
2024/01/10 11:49:54;;;;;;;34.13;27.52;;;1.90;99.90;;;;;;5092652;28;20099;-60
2024/01/10 11:52:22;;;;;;;28.15;23.70;;;2.00;99.90;;;;;;5092253;28;20103;-60
2024/01/10 11:54:48;;;;;;;50.28;43.65;;;2.00;99.90;;;;;;5092100;28;20040;-60
2024/01/10 11:57:21;;;;;;;41.60;34.97;;;2.00;99.90;;;;;;5092631;28;20103;-60
2024/01/10 11:59:51;;;;;;;39.50;33.67;;;1.90;99.90;;;;;;5092419;28;20024;-60
2024/01/10 12:02:19;;;;;;;34.10;29.75;;;1.90;99.90;;;;;;5092698;28;20477;-60
2024/01/10 12:04:45;;;;;;;30.83;26.42;;;2.00;99.90;;;;;;5092163;28;20024;-60
2024/01/10 12:07:12;;;;;;;39.08;34.08;;;2.00;99.90;;;;;;5092067;28;20363;-59
2024/01/10 12:09:39;;;;;;;33.05;27.55;;;2.00;99.90;;;;;;5092401;28;20485;-60
2024/01/10 12:12:05;;;;;;;31.45;26.08;;;2.00;99.90;;;;;;5092460;28;20103;-60
2024/01/10 12:14:31;;;;;;;29.60;23.75;;;2.00;99.90;;;;;;5091849;28;20067;-60
2024/01/10 12:16:59;;;;;;;226.75;144.40;;;2.10;99.90;;;;;;5091915;28;20059;-60
2024/01/10 12:19:25;;;;;;;245.63;161.27;;;2.10;99.90;;;;;;5091989;28;20016;-61
2024/01/10 12:21:50;;;;;;;168.75;121.00;;;2.00;99.90;;;;;;5092209;28;20462;-62
2024/01/10 12:24:16;;;;;;;217.93;150.63;;;2.00;99.90;;;;;;5092171;28;20032;-62
2024/01/10 12:26:49;;;;;;;120.53;84.75;;;2.10;99.90;;;;;;5091785;28;20031;-62
2024/01/10 12:29:18;;;;;;;158.90;125.32;;;2.00;99.90;;;;;;5092626;28;20106;-63
2024/01/10 12:31:45;;;;;;;74.30;59.50;;;2.10;99.90;;;;;;5092104;28;20506;-62
2024/01/10 12:34:11;;;;;;;46.03;38.70;;;2.10;99.90;;;;;;5091739;28;20033;-63